Time;durP1;ratioP1;P1;durP2;ratioP2;P2;SDS_P1;SDS_P2;PMS_P1;PMS_P2;Temp;Humidity;BMP_temperature;BMP_pressure;BME280_temperature;BME280_humidity;BME280_pressure;Samples;Min_cycle;Max_cycle;Signal;HPM_P1;HPM_P2
2020/12/07 00:00:45;;;;;;;28.73;12.80;;;17.60;85.50;;;;;;4980052;28;21499;-65
2020/12/07 00:03:12;;;;;;;22.58;11.57;;;17.40;85.90;;;;;;4980816;28;20088;-64
2020/12/07 00:05:39;;;;;;;30.08;12.43;;;17.30;86.00;;;;;;4982003;28;20573;-63
2020/12/07 00:08:06;;;;;;;27.10;13.50;;;17.30;86.90;;;;;;4967239;28;20392;-64
2020/12/07 00:10:32;;;;;;;21.45;12.65;;;17.10;88.30;;;;;;4976681;28;20281;-63
2020/12/07 00:13:00;;;;;;;24.30;13.95;;;17.10;90.00;;;;;;4981844;28;20030;-62
2020/12/07 00:15:27;;;;;;;39.97;12.77;;;17.00;90.20;;;;;;4980373;28;20081;-63
2020/12/07 00:17:54;;;;;;;24.15;12.65;;;16.90;90.70;;;;;;4981352;28;20093;-62
2020/12/07 00:20:20;;;;;;;32.35;13.68;;;16.70;91.00;;;;;;4982871;28;20046;-62
2020/12/07 00:22:47;;;;;;;39.63;13.63;;;16.70;90.90;;;;;;4978444;28;20022;-62
2020/12/07 00:25:13;;;;;;;27.40;13.57;;;16.60;90.80;;;;;;4980761;28;20456;-62
2020/12/07 00:27:41;;;;;;;25.15;14.15;;;16.50;91.10;;;;;;4979550;28;20379;-62
2020/12/07 00:30:07;;;;;;;27.77;13.20;;;16.30;91.50;;;;;;4980310;28;20038;-62
2020/12/07 00:32:34;;;;;;;30.13;14.15;;;16.20;91.90;;;;;;4979618;28;20098;-62
2020/12/07 00:35:01;;;;;;;27.98;14.55;;;16.30;92.10;;;;;;4978414;28;20045;-64
2020/12/07 00:37:28;;;;;;;48.25;13.43;;;16.20;92.30;;;;;;4979073;28;20286;-63
2020/12/07 00:39:55;;;;;;;28.75;12.07;;;16.20;92.40;;;;;;4979801;28;20027;-63
2020/12/07 00:42:21;;;;;;;32.80;12.02;;;15.80;93.10;;;;;;4978125;28;20085;-63
2020/12/07 00:44:48;;;;;;;26.27;12.45;;;15.80;93.40;;;;;;4962278;28;20113;-63
2020/12/07 00:47:15;;;;;;;33.40;13.50;;;15.80;93.40;;;;;;4978136;28;20141;-63
2020/12/07 00:49:42;;;;;;;26.42;13.77;;;15.50;94.30;;;;;;4977710;28;20085;-65
2020/12/07 00:52:08;;;;;;;33.13;13.75;;;15.30;95.00;;;;;;4981883;28;20066;-65
2020/12/07 00:54:35;;;;;;;25.27;12.95;;;15.10;95.60;;;;;;4979139;28;20034;-64
2020/12/07 00:57:03;;;;;;;27.83;13.45;;;14.90;96.40;;;;;;4979495;28;20034;-65
2020/12/07 00:59:29;;;;;;;24.95;13.30;;;14.90;96.60;;;;;;4981078;28;20527;-64
2020/12/07 01:01:57;;;;;;;30.08;14.52;;;14.90;96.80;;;;;;4979511;28;20027;-64
2020/12/07 01:04:24;;;;;;;23.63;13.57;;;14.70;97.10;;;;;;4980133;28;20034;-64
2020/12/07 01:06:51;;;;;;;22.17;13.32;;;14.40;98.20;;;;;;4980903;28;20061;-64
2020/12/07 01:09:22;;;;;;;21.35;13.07;;;14.40;98.70;;;;;;4976278;28;20034;-64
2020/12/07 01:11:57;;;;;;;30.88;14.05;;;14.40;98.50;;;;;;4980067;28;20113;-64
2020/12/07 01:14:24;;;;;;;25.48;13.75;;;14.20;99.00;;;;;;4979030;28;20038;-64
2020/12/07 01:16:51;;;;;;;27.63;14.13;;;14.00;99.80;;;;;;4980835;28;20034;-64
2020/12/07 01:19:18;;;;;;;26.90;12.90;;;13.90;99.90;;;;;;4977314;28;20376;-64
2020/12/07 01:21:45;;;;;;;26.95;11.90;;;13.90;99.90;;;;;;4980345;28;20038;-64
2020/12/07 01:24:12;;;;;;;25.40;12.82;;;13.90;99.90;;;;;;4980421;28;20023;-64
2020/12/07 01:26:39;;;;;;;24.33;12.88;;;13.80;99.90;;;;;;4979438;28;20051;-64
2020/12/07 01:29:07;;;;;;;26.15;13.32;;;13.80;99.90;;;;;;4980580;28;20031;-65
2020/12/07 01:31:33;;;;;;;30.23;12.13;;;13.80;99.90;;;;;;4980615;28;20136;-64
2020/12/07 01:34:00;;;;;;;27.55;13.02;;;13.80;99.90;;;;;;4980513;28;20030;-63
2020/12/07 01:36:27;;;;;;;26.70;12.85;;;13.80;99.90;;;;;;4979534;28;20038;-63
2020/12/07 01:38:53;;;;;;;30.35;13.55;;;13.90;99.90;;;;;;5479922;23;20087;-64
2020/12/07 01:41:20;;;;;;;27.20;13.48;;;13.60;99.90;;;;;;5018652;28;20018;-63
2020/12/07 01:43:47;;;;;;;25.50;12.95;;;13.50;99.90;;;;;;5002629;28;20025;-62
2020/12/07 01:46:22;;;;;;;26.48;14.27;;;13.40;99.90;;;;;;5016573;28;20470;-63
2020/12/07 01:48:54;;;;;;;37.15;13.13;;;13.50;99.90;;;;;;5017441;28;20034;-64
2020/12/07 01:51:22;;;;;;;24.33;13.48;;;13.60;99.90;;;;;;5015886;28;20502;-63
2020/12/07 01:53:49;;;;;;;21.52;14.60;;;13.30;99.90;;;;;;5019249;28;20076;-63
2020/12/07 01:56:30;;;;;;;33.92;13.88;;;13.20;99.90;;;;;;5016708;28;20032;-64
2020/12/07 01:58:58;;;;;;;28.48;14.43;;;13.00;99.90;;;;;;5016849;28;20174;-64
2020/12/07 02:01:27;;;;;;;30.90;13.68;;;12.90;99.90;;;;;;5018433;28;20036;-64
2020/12/07 02:03:54;;;;;;;28.83;15.63;;;12.90;99.90;;;;;;5019075;28;20141;-65
2020/12/07 02:06:21;;;;;;;28.70;14.45;;;12.80;99.90;;;;;;5018873;28;20041;-64
2020/12/07 02:08:51;;;;;;;26.73;15.65;;;12.80;99.90;;;;;;5007388;28;20064;-64
2020/12/07 02:11:19;;;;;;;35.35;15.77;;;12.70;99.90;;;;;;5016656;28;20292;-63
2020/12/07 02:13:46;;;;;;;27.67;15.80;;;12.70;99.90;;;;;;5017065;28;20059;-64
2020/12/07 02:16:13;;;;;;;36.35;16.30;;;12.60;99.90;;;;;;5015129;28;20064;-64
2020/12/07 02:18:40;;;;;;;32.60;16.23;;;12.60;99.90;;;;;;5016668;28;20092;-64
2020/12/07 02:21:07;;;;;;;26.58;15.18;;;12.40;99.90;;;;;;5000354;28;20083;-66
2020/12/07 02:23:33;;;;;;;36.10;15.98;;;12.40;99.90;;;;;;5018469;28;20604;-65
2020/12/07 02:26:00;;;;;;;29.98;15.35;;;12.30;99.90;;;;;;5017628;28;20152;-65
2020/12/07 02:28:27;;;;;;;28.08;17.98;;;12.30;99.90;;;;;;4994080;28;20032;-65
2020/12/07 02:30:53;;;;;;;34.42;17.88;;;12.20;99.90;;;;;;5016046;28;20064;-65
2020/12/07 02:33:20;;;;;;;37.63;16.27;;;12.10;99.90;;;;;;4996979;28;20147;-65
2020/12/07 02:35:46;;;;;;;37.13;17.52;;;12.20;99.90;;;;;;5013475;28;20083;-66
2020/12/07 02:38:13;;;;;;;47.55;19.80;;;12.20;99.90;;;;;;5016163;28;20463;-65
2020/12/07 02:40:39;;;;;;;36.10;18.40;;;12.00;99.90;;;;;;5018921;28;20049;-64
2020/12/07 02:43:07;;;;;;;35.05;18.00;;;12.10;99.90;;;;;;5013660;28;20120;-66
2020/12/07 02:45:33;;;;;;;31.58;18.35;;;12.10;99.90;;;;;;5002141;28;20090;-65
2020/12/07 02:48:00;;;;;;;35.17;19.40;;;12.00;99.90;;;;;;5015855;28;20049;-66
2020/12/07 02:50:26;;;;;;;33.95;18.45;;;12.00;99.90;;;;;;5017002;28;20025;-65
2020/12/07 02:52:53;;;;;;;47.03;20.98;;;12.00;99.90;;;;;;5016575;28;20029;-64
2020/12/07 02:55:20;;;;;;;35.78;18.05;;;11.90;99.90;;;;;;5014982;28;20021;-66
2020/12/07 02:57:46;;;;;;;57.53;21.50;;;11.90;99.90;;;;;;5016802;28;20029;-64
2020/12/07 03:00:13;;;;;;;41.83;19.13;;;11.70;99.90;;;;;;5015957;28;20136;-60
2020/12/07 03:02:40;;;;;;;36.15;20.20;;;11.60;99.90;;;;;;5017660;28;20082;-62
2020/12/07 03:05:07;;;;;;;38.53;19.27;;;11.50;99.90;;;;;;5014594;28;20022;-62
2020/12/07 03:07:33;;;;;;;36.60;19.10;;;11.50;99.90;;;;;;5012795;28;20048;-61
2020/12/07 03:10:00;;;;;;;42.47;19.50;;;11.50;99.90;;;;;;5011557;28;20103;-64
2020/12/07 03:12:26;;;;;;;35.55;18.75;;;11.40;99.90;;;;;;5502831;23;20073;-64
2020/12/07 03:14:53;;;;;;;42.17;20.40;;;11.40;99.90;;;;;;4975339;28;20023;-63
2020/12/07 03:17:20;;;;;;;35.70;19.33;;;11.50;99.90;;;;;;4977544;28;20028;-63
2020/12/07 03:19:46;;;;;;;34.47;20.13;;;11.50;99.90;;;;;;4976979;28;20104;-63
2020/12/07 03:22:13;;;;;;;33.72;19.52;;;11.40;99.90;;;;;;4965406;28;20031;-63
2020/12/07 03:24:40;;;;;;;34.92;20.42;;;11.40;99.90;;;;;;4977172;28;20027;-63
2020/12/07 03:27:06;;;;;;;42.90;19.38;;;11.60;99.90;;;;;;4976593;28;20065;-63
2020/12/07 03:29:33;;;;;;;38.33;20.48;;;11.70;99.90;;;;;;4978216;28;20039;-63
2020/12/07 03:32:00;;;;;;;33.78;17.70;;;11.60;99.90;;;;;;4977250;28;20052;-63
2020/12/07 03:34:26;;;;;;;37.65;19.88;;;11.50;99.90;;;;;;4976126;28;20066;-63
2020/12/07 03:36:53;;;;;;;39.65;20.45;;;11.30;99.90;;;;;;4977108;28;20042;-63
2020/12/07 03:39:20;;;;;;;41.50;21.15;;;11.20;99.90;;;;;;4977289;28;20080;-62
2020/12/07 03:41:46;;;;;;;35.03;20.42;;;11.00;99.90;;;;;;4975866;28;20026;-62
2020/12/07 03:44:13;;;;;;;35.53;19.80;;;11.00;99.90;;;;;;4974512;28;20093;-62
2020/12/07 03:46:40;;;;;;;38.92;19.58;;;11.20;99.90;;;;;;4976898;28;20317;-62
2020/12/07 03:49:06;;;;;;;37.75;20.65;;;11.20;99.90;;;;;;4975206;28;20034;-63
2020/12/07 03:51:33;;;;;;;32.10;19.75;;;10.90;99.90;;;;;;4957514;28;20030;-63
2020/12/07 03:53:59;;;;;;;40.00;19.98;;;10.80;99.90;;;;;;4975664;28;20031;-64
2020/12/07 03:56:26;;;;;;;33.60;20.98;;;10.80;99.90;;;;;;4975338;28;20038;-64
2020/12/07 03:58:53;;;;;;;32.05;18.63;;;11.00;99.90;;;;;;4973808;28;20035;-63
2020/12/07 04:01:19;;;;;;;36.08;20.33;;;10.90;99.90;;;;;;4977399;28;20034;-64
2020/12/07 04:03:51;;;;;;;46.05;21.58;;;10.70;99.90;;;;;;4974722;28;20061;-64
2020/12/07 04:06:31;;;;;;;31.95;20.65;;;10.50;99.90;;;;;;4977289;28;20033;-64
2020/12/07 04:08:57;;;;;;;38.30;21.13;;;10.40;99.90;;;;;;4975821;28;20117;-64
2020/12/07 04:11:24;;;;;;;39.95;21.38;;;10.40;99.90;;;;;;4975675;28;20023;-63
2020/12/07 04:13:51;;;;;;;50.92;24.45;;;10.40;99.90;;;;;;4959860;28;20047;-64
2020/12/07 04:16:17;;;;;;;34.70;20.23;;;10.30;99.90;;;;;;4976488;28;20050;-64
2020/12/07 04:18:44;;;;;;;43.25;19.52;;;10.30;99.90;;;;;;4976886;28;20022;-63
2020/12/07 04:21:11;;;;;;;42.47;21.40;;;10.30;99.90;;;;;;4977741;28;20053;-64
2020/12/07 04:23:37;;;;;;;38.20;21.20;;;10.30;99.90;;;;;;4973962;28;20093;-64
2020/12/07 04:26:04;;;;;;;35.80;20.83;;;10.30;99.90;;;;;;4974616;28;20030;-63
2020/12/07 04:28:30;;;;;;;34.35;20.77;;;10.40;99.90;;;;;;4973482;28;20413;-63
2020/12/07 04:30:57;;;;;;;36.78;20.75;;;10.50;99.90;;;;;;4953315;28;20476;-63
2020/12/07 04:33:24;;;;;;;47.75;22.58;;;10.60;99.90;;;;;;4972892;28;20066;-63
2020/12/07 04:35:50;;;;;;;39.63;21.65;;;10.50;99.90;;;;;;4974094;28;20077;-64
2020/12/07 04:38:17;;;;;;;44.40;22.23;;;10.40;99.90;;;;;;4975928;28;20038;-63
2020/12/07 04:40:44;;;;;;;45.47;22.73;;;10.30;99.90;;;;;;4964161;28;20356;-63
2020/12/07 04:43:11;;;;;;;41.67;24.08;;;10.20;99.90;;;;;;4976353;28;20092;-64
2020/12/07 04:45:38;;;;;;;39.38;22.05;;;10.10;99.90;;;;;;4977188;28;20023;-64
2020/12/07 04:48:06;;;;;;;37.58;21.65;;;10.20;99.90;;;;;;4979204;28;20026;-64
2020/12/07 04:50:36;;;;;;;42.60;24.10;;;10.40;99.90;;;;;;4962462;28;20042;-63
2020/12/07 04:53:03;;;;;;;45.72;23.90;;;10.30;99.90;;;;;;4980595;28;20388;-63
2020/12/07 04:55:29;;;;;;;42.00;22.75;;;10.10;99.90;;;;;;4979936;28;20142;-63
2020/12/07 04:57:56;;;;;;;45.25;24.55;;;10.10;99.90;;;;;;4976656;28;20550;-64
2020/12/07 05:00:26;;;;;;;36.08;24.08;;;10.20;99.90;;;;;;4978229;28;20101;-63
2020/12/07 05:02:56;;;;;;;38.42;21.75;;;10.30;99.90;;;;;;4977716;28;20116;-64
2020/12/07 05:05:24;;;;;;;45.30;25.02;;;10.40;99.90;;;;;;4979531;28;20031;-63
2020/12/07 05:07:52;;;;;;;38.22;23.73;;;10.20;99.90;;;;;;4979648;28;20041;-63
2020/12/07 05:10:38;;;;;;;54.70;26.75;;;10.00;99.90;;;;;;4981081;28;20637;-62
2020/12/07 05:13:23;;;;;;;39.92;23.75;;;10.00;99.90;;;;;;4979124;28;20089;-63
2020/12/07 05:15:50;;;;;;;42.22;25.25;;;9.80;99.90;;;;;;4979540;28;20040;-63
2020/12/07 05:18:16;;;;;;;41.78;23.70;;;9.80;99.90;;;;;;4946565;28;20113;-63
2020/12/07 05:20:43;;;;;;;47.95;25.60;;;9.80;99.90;;;;;;4969031;28;20037;-63
2020/12/07 05:23:15;;;;;;;43.42;26.13;;;9.80;99.90;;;;;;4977145;28;20064;-62
2020/12/07 05:25:45;;;;;;;47.03;25.35;;;9.70;99.90;;;;;;4979504;28;20061;-60
2020/12/07 05:28:16;;;;;;;47.10;25.77;;;9.60;99.90;;;;;;4975645;28;20088;-62
2020/12/07 05:30:46;;;;;;;41.75;25.65;;;9.70;99.90;;;;;;4980281;28;20065;-61
2020/12/07 05:33:13;;;;;;;42.55;25.90;;;9.70;99.90;;;;;;4978091;28;20113;-61
2020/12/07 05:38:15;;;;;;;43.28;25.77;;;9.70;99.90;;;;;;5018423;23;20072;-62
2020/12/07 05:40:42;;;;;;;40.40;26.48;;;9.60;99.90;;;;;;4997305;28;20076;-63
2020/12/07 05:43:11;;;;;;;48.38;29.20;;;9.80;99.90;;;;;;4998197;28;20025;-62
2020/12/07 05:45:39;;;;;;;45.35;27.15;;;10.00;99.90;;;;;;4996850;28;20022;-62
2020/12/07 05:48:07;;;;;;;50.90;26.92;;;10.10;99.90;;;;;;4999200;28;20164;-62
2020/12/07 05:50:38;;;;;;;42.42;26.48;;;9.80;99.90;;;;;;5000486;28;20037;-62
2020/12/07 05:53:05;;;;;;;42.25;25.15;;;9.70;99.90;;;;;;5000267;28;20129;-62
2020/12/07 05:55:33;;;;;;;48.92;27.17;;;9.60;99.90;;;;;;4981671;28;20040;-62
2020/12/07 05:58:07;;;;;;;42.75;26.15;;;9.60;99.90;;;;;;4998825;28;20037;-62
2020/12/07 06:00:35;;;;;;;55.22;30.35;;;9.70;99.90;;;;;;4995716;28;20360;-61
2020/12/07 06:03:03;;;;;;;38.92;25.60;;;9.80;99.90;;;;;;4997350;28;20033;-62
2020/12/07 06:05:30;;;;;;;40.03;23.67;;;9.90;99.90;;;;;;4997401;28;20064;-62
2020/12/07 06:08:34;;;;;;;44.92;23.52;;;9.80;99.90;;;;;;4997239;28;20033;-62
2020/12/07 06:11:11;;;;;;;42.22;23.60;;;9.70;99.90;;;;;;4998256;28;20153;-63
2020/12/07 06:13:38;;;;;;;36.83;22.55;;;9.60;99.90;;;;;;4998041;28;20038;-62
2020/12/07 06:16:07;;;;;;;36.88;21.42;;;9.30;99.90;;;;;;4997870;28;20033;-62
2020/12/07 06:18:41;;;;;;;35.95;23.35;;;9.20;99.90;;;;;;4997321;28;20085;-62
2020/12/07 06:21:13;;;;;;;41.78;22.33;;;9.20;99.90;;;;;;4997776;28;21844;-62
2020/12/07 06:23:42;;;;;;;41.92;22.88;;;9.30;99.90;;;;;;4994939;28;20032;-62
2020/12/07 06:26:10;;;;;;;;;;;9.20;99.90;;;;;;4996418;28;20038;-62
2020/12/07 06:28:39;;;;;;;45.33;23.70;;;9.20;99.90;;;;;;4992570;28;19949;-62
2020/12/07 06:31:13;;;;;;;34.78;23.27;;;9.20;99.90;;;;;;4984274;28;20029;-62
2020/12/07 06:33:45;;;;;;;36.35;23.25;;;9.20;99.90;;;;;;4998807;28;20388;-61
2020/12/07 06:36:35;;;;;;;44.58;24.52;;;9.20;99.90;;;;;;4977559;28;20026;-62
2020/12/07 06:39:02;;;;;;;;;;;9.20;99.90;;;;;;4996506;28;20044;-62
2020/12/07 06:41:38;;;;;;;44.03;25.15;;;9.30;99.90;;;;;;4995669;28;19997;-62
2020/12/07 06:44:16;;;;;;;50.97;25.70;;;9.40;99.90;;;;;;4997456;28;20034;-61
2020/12/07 06:46:51;;;;;;;40.53;25.33;;;9.40;99.90;;;;;;4998269;28;20025;-62
2020/12/07 06:49:18;;;;;;;46.03;26.15;;;9.50;99.90;;;;;;4995087;28;20109;-62
2020/12/07 06:52:01;;;;;;;39.88;24.15;;;9.50;99.90;;;;;;4995949;28;20347;-63
2020/12/07 06:57:22;;;;;;;42.97;25.55;;;9.20;99.90;;;;;;4996636;28;20097;-61
2020/12/07 07:00:18;;;;;;;44.72;25.60;;;9.20;99.90;;;;;;4997807;28;20030;-61
2020/12/07 07:02:46;;;;;;;46.28;28.13;;;9.20;99.90;;;;;;4994826;28;20033;-60
2020/12/07 07:05:16;;;;;;;41.38;27.83;;;9.40;99.90;;;;;;4997269;28;20034;-61
2020/12/07 07:07:43;;;;;;;39.63;25.45;;;9.50;99.90;;;;;;4995527;28;20111;-62
2020/12/07 07:10:11;;;;;;;42.17;24.85;;;9.60;99.90;;;;;;4994873;28;20497;-61
2020/12/07 07:12:39;;;;;;;35.80;25.92;;;9.50;99.90;;;;;;4995196;28;21835;-61
2020/12/07 07:15:08;;;;;;;39.22;25.25;;;9.40;99.90;;;;;;4994694;28;20070;-61
2020/12/07 07:17:36;;;;;;;42.88;26.52;;;9.50;99.90;;;;;;4994682;28;20081;-64
2020/12/07 07:20:06;;;;;;;30.77;20.33;;;9.40;99.90;;;;;;4997712;28;20069;-62
2020/12/07 07:22:33;;;;;;;;;;;9.40;99.90;;;;;;4997380;28;20034;-61
2020/12/07 07:30:17;;;;;;;44.50;25.35;;;9.50;99.90;;;;;;4997781;28;20051;-62
2020/12/07 07:32:45;;;;;;;39.07;26.17;;;9.70;99.90;;;;;;4996436;28;20029;-62
2020/12/07 07:35:14;;;;;;;43.17;26.77;;;9.90;99.90;;;;;;4998564;28;20293;-61
2020/12/07 07:37:41;;;;;;;59.65;27.33;;;10.00;99.90;;;;;;4997001;28;20061;-62
2020/12/07 07:40:13;;;;;;;40.85;24.95;;;10.20;99.90;;;;;;4986033;28;20668;-62
2020/12/07 07:43:02;;;;;;;46.78;24.30;;;10.30;99.90;;;;;;4997273;28;20026;-62
2020/12/07 07:45:37;;;;;;;42.60;24.42;;;10.20;99.90;;;;;;4998429;28;20037;-61
2020/12/07 08:03:24;;;;;;;41.80;20.33;;;10.30;99.90;;;;;;4996904;28;20679;-62
2020/12/07 08:15:57;;;;;;;34.60;22.15;;;10.70;99.90;;;;;;4996892;28;20033;-61
2020/12/07 08:18:34;;;;;;;42.30;23.88;;;10.60;99.90;;;;;;4995987;28;20040;-63
2020/12/07 08:21:02;;;;;;;59.83;30.55;;;10.80;99.90;;;;;;5000613;28;20040;-61
2020/12/07 08:23:31;;;;;;;97.60;45.17;;;10.90;99.90;;;;;;4990194;28;20045;-62
2020/12/07 08:25:59;;;;;;;80.10;39.95;;;11.00;99.90;;;;;;5002129;28;20593;-61
2020/12/07 08:28:31;;;;;;;40.70;26.33;;;11.00;99.90;;;;;;5001038;28;20069;-61
2020/12/07 08:31:01;;;;;;;39.17;21.85;;;10.90;99.90;;;;;;5001261;28;20095;-61
2020/12/07 08:33:28;;;;;;;35.03;18.70;;;10.70;99.90;;;;;;5001628;28;20041;-62
2020/12/07 08:35:56;;;;;;;30.38;18.70;;;10.60;99.90;;;;;;5001178;28;20092;-62
2020/12/07 08:38:35;;;;;;;32.72;18.20;;;10.50;99.90;;;;;;5001566;28;20125;-63
2020/12/07 08:41:11;;;;;;;29.75;17.35;;;10.50;99.90;;;;;;5002390;28;20037;-62
2020/12/07 08:43:42;;;;;;;32.40;17.65;;;10.20;99.90;;;;;;5001351;28;20091;-61
2020/12/07 08:46:11;;;;;;;28.83;16.48;;;10.10;99.90;;;;;;5002141;28;20026;-62
2020/12/07 08:48:38;;;;;;;32.42;16.83;;;10.20;99.90;;;;;;4988834;28;20228;-62
2020/12/07 08:51:07;;;;;;;31.60;16.92;;;10.20;99.90;;;;;;5000911;28;20030;-61
2020/12/07 08:53:34;;;;;;;36.50;19.80;;;9.90;99.90;;;;;;5002138;28;20029;-62
2020/12/07 08:56:02;;;;;;;32.03;19.45;;;10.00;99.90;;;;;;4984598;28;20388;-62
2020/12/07 08:58:29;;;;;;;30.65;17.83;;;9.80;99.90;;;;;;5000750;28;20021;-61
2020/12/07 09:00:55;;;;;;;31.45;17.92;;;9.60;99.90;;;;;;4999315;28;20042;-62
2020/12/07 09:03:23;;;;;;;29.52;17.73;;;9.60;99.90;;;;;;5002034;28;20377;-62
2020/12/07 09:05:49;;;;;;;33.05;16.30;;;9.70;99.90;;;;;;5001832;28;20025;-62
2020/12/07 09:08:16;;;;;;;32.05;15.73;;;9.70;99.90;;;;;;4998621;28;20037;-62
2020/12/07 09:10:43;;;;;;;35.08;15.27;;;9.80;99.90;;;;;;5000895;28;20025;-62
2020/12/07 09:13:09;;;;;;;32.67;14.27;;;9.90;99.90;;;;;;5000784;28;20068;-62
2020/12/07 09:15:36;;;;;;;25.67;13.73;;;9.90;99.90;;;;;;4999855;28;20032;-61
2020/12/07 09:18:03;;;;;;;27.67;13.98;;;9.90;99.60;;;;;;4984016;28;20109;-62
2020/12/07 09:20:29;;;;;;;22.60;12.68;;;9.90;99.00;;;;;;5001390;28;20041;-62
2020/12/07 09:22:56;;;;;;;22.33;12.30;;;9.90;98.30;;;;;;4999296;28;20736;-62
2020/12/07 09:25:23;;;;;;;28.90;12.02;;;10.00;97.80;;;;;;4998146;28;20045;-62
2020/12/07 09:27:49;;;;;;;21.65;12.45;;;10.10;97.40;;;;;;4999823;28;20297;-63
2020/12/07 09:30:16;;;;;;;25.20;12.38;;;10.10;97.80;;;;;;4999789;28;20401;-62
2020/12/07 09:32:42;;;;;;;30.88;11.90;;;9.80;98.60;;;;;;4999438;28;20026;-61
2020/12/07 09:35:09;;;;;;;22.98;11.77;;;9.70;98.60;;;;;;5000838;28;20034;-61
2020/12/07 09:37:37;;;;;;;23.70;12.68;;;9.50;99.10;;;;;;5001392;28;20431;-62
2020/12/07 09:40:10;;;;;;;26.30;11.95;;;9.40;99.90;;;;;;5000632;28;20029;-62
2020/12/07 09:42:38;;;;;;;18.63;10.68;;;9.40;99.90;;;;;;4999249;28;20479;-62
2020/12/07 09:45:06;;;;;;;29.40;12.65;;;9.30;99.90;;;;;;4982174;28;20086;-62
2020/12/07 09:47:34;;;;;;;18.97;12.20;;;9.40;99.80;;;;;;5000941;28;20045;-62
2020/12/07 09:50:03;;;;;;;27.55;12.10;;;9.50;99.80;;;;;;4999626;28;20113;-62
2020/12/07 09:52:29;;;;;;;26.77;11.05;;;9.60;98.60;;;;;;5001603;28;20349;-62
2020/12/07 09:54:56;;;;;;;20.30;11.10;;;9.50;97.90;;;;;;5002409;28;20038;-62
2020/12/07 09:57:22;;;;;;;19.02;11.57;;;9.50;98.40;;;;;;5000719;28;20411;-61
2020/12/07 09:59:50;;;;;;;17.17;9.77;;;9.50;98.20;;;;;;4988787;28;20381;-62
2020/12/07 10:02:17;;;;;;;20.45;9.40;;;9.50;96.20;;;;;;5000539;28;20128;-62
2020/12/07 10:04:44;;;;;;;20.08;8.95;;;9.60;95.00;;;;;;5000322;28;20375;-62
2020/12/07 10:07:12;;;;;;;15.52;8.23;;;9.70;93.70;;;;;;4982826;28;20065;-62
2020/12/07 10:09:39;;;;;;;20.77;8.50;;;9.70;92.90;;;;;;4987511;28;20034;-62
2020/12/07 10:12:06;;;;;;;21.08;8.77;;;9.80;92.30;;;;;;4989342;28;20034;-62
2020/12/07 10:14:33;;;;;;;23.13;9.70;;;9.90;92.20;;;;;;4999340;28;20339;-62
2020/12/07 10:17:00;;;;;;;25.90;9.90;;;9.80;92.10;;;;;;4999679;28;20026;-62
2020/12/07 10:19:27;;;;;;;27.33;11.50;;;9.80;92.20;;;;;;4997847;28;20145;-61
2020/12/07 10:21:54;;;;;;;22.67;9.27;;;9.80;91.70;;;;;;5000522;28;20036;-61
2020/12/07 10:24:21;;;;;;;23.40;11.13;;;9.80;91.60;;;;;;4998293;28;20037;-62
2020/12/07 10:26:48;;;;;;;26.33;11.52;;;9.80;91.60;;;;;;4999832;28;20402;-62
2020/12/07 10:29:15;;;;;;;21.40;10.13;;;9.80;92.30;;;;;;4999968;28;20069;-62
2020/12/07 10:31:42;;;;;;;20.58;10.70;;;9.70;92.80;;;;;;4997595;28;20026;-62
2020/12/07 10:34:09;;;;;;;24.52;9.48;;;9.60;93.00;;;;;;4998660;28;20030;-61
2020/12/07 10:36:36;;;;;;;21.20;10.00;;;9.40;94.30;;;;;;4996951;28;20082;-61
2020/12/07 10:39:06;;;;;;;18.63;9.75;;;9.30;94.10;;;;;;4997804;28;20022;-61
2020/12/07 10:41:34;;;;;;;19.17;9.35;;;9.40;93.40;;;;;;4999923;28;20101;-61
2020/12/07 10:44:00;;;;;;;17.05;10.10;;;9.40;92.50;;;;;;4999705;28;20312;-63
2020/12/07 10:46:27;;;;;;;23.27;10.90;;;9.50;92.10;;;;;;4998992;28;20022;-62
2020/12/07 10:48:54;;;;;;;19.60;9.60;;;9.50;91.70;;;;;;4998997;28;20037;-62
2020/12/07 10:51:20;;;;;;;18.40;10.00;;;9.40;91.70;;;;;;4998999;28;20829;-63
2020/12/07 10:53:47;;;;;;;17.38;9.20;;;9.40;91.30;;;;;;4999212;28;20121;-62
2020/12/07 10:56:14;;;;;;;19.80;10.00;;;9.50;90.70;;;;;;4996711;28;20049;-61
2020/12/07 10:58:44;;;;;;;16.35;8.50;;;9.50;90.50;;;;;;4984948;28;20091;-62
2020/12/07 11:01:11;;;;;;;16.73;9.45;;;9.50;90.60;;;;;;4999373;28;20022;-61
2020/12/07 11:03:38;;;;;;;26.10;9.45;;;9.50;90.80;;;;;;4998326;28;20030;-61
2020/12/07 11:06:15;;;;;;;19.85;9.50;;;9.40;91.00;;;;;;4999709;28;20034;-62
2020/12/07 11:09:22;;;;;;;23.10;8.90;;;9.20;91.60;;;;;;4987503;28;20057;-62
2020/12/07 11:11:34;;;;;;;22.88;8.50;;;9.10;92.00;;;;;;4995225;28;20471;-60
2020/12/07 11:14:01;;;;;;;14.13;8.27;;;9.10;94.30;;;;;;4998891;28;20084;-61
2020/12/07 11:16:27;;;;;;;18.25;7.82;;;8.90;95.60;;;;;;4999545;28;20034;-62
2020/12/07 11:18:54;;;;;;;19.80;7.43;;;8.90;95.30;;;;;;4986035;28;20039;-62
2020/12/07 11:21:21;;;;;;;18.13;8.48;;;8.90;93.90;;;;;;4998579;28;20018;-62
2020/12/07 11:23:48;;;;;;;21.23;7.75;;;8.90;94.90;;;;;;5000226;28;20030;-61
2020/12/07 11:26:17;;;;;;;16.10;8.27;;;8.80;94.90;;;;;;4987247;28;20041;-61
2020/12/07 11:28:44;;;;;;;17.73;8.05;;;8.80;95.30;;;;;;4998751;28;20056;-62
2020/12/07 11:31:16;;;;;;;15.98;7.93;;;8.70;95.20;;;;;;4999349;28;20049;-62
2020/12/07 11:33:44;;;;;;;14.32;7.88;;;8.60;95.20;;;;;;4998631;28;20107;-62
2020/12/07 11:36:10;;;;;;;13.85;7.45;;;8.50;96.80;;;;;;4996489;28;20030;-63
2020/12/07 11:38:42;;;;;;;21.75;9.15;;;8.50;97.30;;;;;;4999064;28;20048;-62
2020/12/07 11:46:27;;;;;;;18.38;9.65;;;8.80;94.50;;;;;;4999239;28;20022;-62
2020/12/07 11:48:53;;;;;;;20.80;9.23;;;8.80;94.40;;;;;;4999362;28;20667;-62
2020/12/07 11:51:24;;;;;;;22.45;9.00;;;8.80;93.90;;;;;;4983951;28;20546;-61
2020/12/07 11:53:52;;;;;;;17.73;8.43;;;8.90;94.10;;;;;;4999074;28;20113;-61
2020/12/07 11:56:27;;;;;;;16.35;9.70;;;8.90;94.10;;;;;;5001557;28;20038;-62
2020/12/07 11:58:53;;;;;;;19.98;8.93;;;8.80;95.00;;;;;;5001616;28;20397;-62
2020/12/07 12:01:20;;;;;;;17.88;9.23;;;8.90;94.20;;;;;;4984481;28;20401;-62
2020/12/07 12:03:47;;;;;;;22.08;8.20;;;8.80;94.30;;;;;;5003223;28;20040;-62
2020/12/07 12:06:22;;;;;;;15.68;8.52;;;8.80;94.00;;;;;;5003087;28;20461;-62
2020/12/07 12:08:48;;;;;;;18.90;8.68;;;8.80;93.90;;;;;;5003314;28;20703;-62
2020/12/07 12:11:15;;;;;;;20.90;8.13;;;8.80;95.10;;;;;;5002490;28;20053;-63
2020/12/07 12:13:42;;;;;;;22.23;8.75;;;8.70;94.30;;;;;;5003709;28;20057;-62
2020/12/07 12:16:08;;;;;;;17.80;8.13;;;8.60;95.30;;;;;;5002933;28;20034;-62
2020/12/07 12:18:35;;;;;;;16.23;8.85;;;8.60;95.90;;;;;;5001802;28;20088;-62
2020/12/07 12:21:02;;;;;;;14.80;8.57;;;8.60;96.20;;;;;;5001801;28;20021;-61
2020/12/07 12:23:28;;;;;;;17.50;7.25;;;8.60;95.40;;;;;;5004196;28;20049;-61
2020/12/07 12:25:55;;;;;;;18.13;7.43;;;8.60;94.80;;;;;;5002307;28;20137;-61
2020/12/07 12:28:21;;;;;;;15.80;8.57;;;8.60;96.10;;;;;;5002511;28;20053;-61
2020/12/07 12:30:48;;;;;;;18.63;8.77;;;8.50;98.60;;;;;;4982784;28;20100;-61
2020/12/07 12:33:15;;;;;;;22.75;9.88;;;8.40;99.70;;;;;;5001845;28;20034;-62
2020/12/07 12:35:42;;;;;;;20.77;8.30;;;8.50;99.40;;;;;;5000985;28;20034;-62
2020/12/07 12:38:08;;;;;;;17.20;8.75;;;8.50;98.50;;;;;;5001381;28;21753;-61
2020/12/07 12:40:35;;;;;;;18.60;8.55;;;8.60;98.20;;;;;;5003018;28;20049;-62
2020/12/07 12:43:02;;;;;;;18.55;8.52;;;8.70;97.90;;;;;;5001852;28;20030;-62
2020/12/07 12:45:28;;;;;;;20.20;9.80;;;8.70;96.00;;;;;;4985828;28;20050;-62
2020/12/07 12:47:55;;;;;;;17.77;7.75;;;8.80;96.10;;;;;;5000794;28;20041;-62
2020/12/07 12:50:22;;;;;;;15.70;7.95;;;8.80;95.90;;;;;;4978500;28;20041;-63
2020/12/07 12:52:48;;;;;;;18.77;7.93;;;8.90;96.80;;;;;;5000766;28;20034;-63
2020/12/07 12:55:15;;;;;;;20.50;9.23;;;9.00;95.30;;;;;;5001116;28;20105;-62
2020/12/07 12:57:42;;;;;;;20.48;8.95;;;9.00;97.20;;;;;;4984860;28;20156;-62
2020/12/07 13:00:08;;;;;;;19.38;9.15;;;9.00;95.70;;;;;;5001295;28;20038;-62
2020/12/07 13:02:35;;;;;;;21.70;8.90;;;8.90;98.50;;;;;;5001224;28;20396;-61
2020/12/07 13:05:01;;;;;;;19.60;9.07;;;8.80;99.90;;;;;;5001973;28;20066;-62
2020/12/07 13:07:28;;;;;;;16.85;7.75;;;8.80;99.90;;;;;;5000692;28;20161;-63
2020/12/07 13:09:55;;;;;;;15.80;8.13;;;8.70;99.70;;;;;;5000020;28;20045;-63
2020/12/07 13:12:22;;;;;;;18.38;8.18;;;8.70;99.90;;;;;;5002416;28;20045;-63
2020/12/07 13:14:49;;;;;;;12.45;6.88;;;8.70;99.70;;;;;;5001645;28;20025;-63
2020/12/07 13:17:18;;;;;;;22.95;8.55;;;8.70;99.90;;;;;;5000673;28;20103;-63
2020/12/07 13:19:45;;;;;;;23.90;7.97;;;8.80;99.80;;;;;;5000524;28;20377;-62
2020/12/07 13:25:05;;;;;;;17.02;7.53;;;8.90;99.50;;;;;;5000539;28;20136;-62